createdAt,value
2022-07-26T00:00:04.631Z,13.99
2022-07-26T00:04:56.259Z,14.00
2022-07-26T00:09:48.499Z,13.97
2022-07-26T00:14:40.360Z,14.05
2022-07-26T00:19:32.761Z,14.05
2022-07-26T00:24:24.386Z,14.01
2022-07-26T00:29:16.010Z,14.03
2022-07-26T00:34:07.611Z,14.00
2022-07-26T00:38:59.226Z,13.90
2022-07-26T00:43:56.037Z,13.82
2022-07-26T00:48:47.725Z,13.73
2022-07-26T00:53:39.435Z,13.68
2022-07-26T00:58:31.103Z,13.63
2022-07-26T01:03:22.719Z,13.64
2022-07-26T01:08:21.067Z,13.67
2022-07-26T01:13:13.313Z,13.71
2022-07-26T01:18:05.005Z,13.75
2022-07-26T01:22:56.712Z,13.81
2022-07-26T01:27:48.363Z,13.79
2022-07-26T01:32:40.236Z,13.83
2022-07-26T01:37:31.965Z,13.83
2022-07-26T01:42:23.631Z,13.82
2022-07-26T01:47:15.350Z,13.79
2022-07-26T01:52:07.024Z,13.78
2022-07-26T01:56:59.000Z,13.79
2022-07-26T02:01:50.712Z,13.82
2022-07-26T02:06:42.429Z,13.87
2022-07-26T02:11:36.034Z,13.86
2022-07-26T02:16:27.835Z,13.79
2022-07-26T02:21:19.554Z,13.76
2022-07-26T02:26:11.338Z,13.77
2022-07-26T02:31:03.084Z,13.76
2022-07-26T02:35:54.811Z,13.77
2022-07-26T02:41:01.618Z,13.73
2022-07-26T02:46:01.026Z,13.74
2022-07-26T02:50:53.618Z,13.70
2022-07-26T02:55:45.217Z,13.67
2022-07-26T03:00:36.841Z,13.65
2022-07-26T03:05:28.628Z,13.65
2022-07-26T03:10:20.464Z,13.61
2022-07-26T03:15:12.694Z,13.64
2022-07-26T03:20:05.208Z,13.63
2022-07-26T03:24:56.937Z,13.60
2022-07-26T03:29:48.571Z,13.56
2022-07-26T03:34:40.211Z,13.55
2022-07-26T03:39:31.908Z,13.57
2022-07-26T03:44:23.561Z,13.55
2022-07-26T03:49:17.135Z,13.51
2022-07-26T03:54:09.561Z,13.54
2022-07-26T03:59:08.247Z,13.56
2022-07-26T04:04:00.076Z,13.54
2022-07-26T04:08:53.618Z,13.53
2022-07-26T04:13:45.240Z,13.50
2022-07-26T04:18:38.671Z,13.48
2022-07-26T04:23:30.297Z,13.39
2022-07-26T04:28:22.042Z,13.36
2022-07-26T04:33:13.703Z,13.38
2022-07-26T04:38:05.388Z,13.30
2022-07-26T04:42:57.017Z,13.29
2022-07-26T04:47:50.790Z,13.30
2022-07-26T04:52:42.607Z,13.29
2022-07-26T04:57:34.926Z,13.25
2022-07-26T05:02:28.065Z,13.26
2022-07-26T05:07:19.799Z,13.25
2022-07-26T05:12:11.507Z,13.26
2022-07-26T05:17:08.696Z,13.25
2022-07-26T05:22:01.982Z,13.24
2022-07-26T05:26:58.488Z,13.26
2022-07-26T05:31:50.323Z,13.30
2022-07-26T05:36:41.983Z,13.34
2022-07-26T05:41:33.598Z,13.38
2022-07-26T05:46:25.413Z,13.41
2022-07-26T05:51:17.130Z,13.47
2022-07-26T05:56:09.116Z,13.47
2022-07-26T06:01:00.792Z,13.50
2022-07-26T06:05:55.604Z,13.57
2022-07-26T06:10:51.040Z,13.61
2022-07-26T06:15:43.169Z,13.67
2022-07-26T06:20:38.018Z,13.72
2022-07-26T06:25:29.666Z,13.76
2022-07-26T06:30:21.293Z,13.78
2022-07-26T06:35:14.560Z,13.88
2022-07-26T06:40:08.357Z,14.09
2022-07-26T06:45:01.019Z,14.35
2022-07-26T06:49:52.777Z,15.04
2022-07-26T06:54:44.678Z,15.88
2022-07-26T06:59:36.354Z,16.44
2022-07-26T07:04:29.811Z,16.47
2022-07-26T07:09:21.516Z,16.58
2022-07-26T07:14:13.114Z,16.97
2022-07-26T07:19:04.717Z,17.69
2022-07-26T07:23:56.354Z,18.20
2022-07-26T07:28:48.652Z,18.81
2022-07-26T07:33:52.478Z,19.00
2022-07-26T07:38:45.479Z,18.84
2022-07-26T07:43:37.617Z,19.39
2022-07-26T07:48:29.373Z,19.94
2022-07-26T07:53:21.067Z,20.34
2022-07-26T07:58:13.278Z,21.08
2022-07-26T08:03:06.193Z,21.03
2022-07-26T08:07:58.210Z,20.38
2022-07-26T08:12:51.295Z,19.97
2022-07-26T08:17:43.331Z,19.73
2022-07-26T08:22:36.268Z,19.48
2022-07-26T08:27:27.977Z,19.56
2022-07-26T08:32:19.597Z,20.05
2022-07-26T08:37:18.681Z,20.55
2022-07-26T08:42:22.808Z,20.62
2022-07-26T08:47:16.504Z,20.59
2022-07-26T08:52:27.348Z,20.42
2022-07-26T08:57:19.094Z,20.39
2022-07-26T09:02:13.158Z,20.29
2022-07-26T09:07:10.043Z,20.20
2022-07-26T09:12:32.129Z,20.14
2022-07-26T09:17:25.693Z,20.19
2022-07-26T09:22:17.394Z,19.93
2022-07-26T09:27:12.914Z,19.66
2022-07-26T09:32:22.551Z,19.41
2022-07-26T09:37:14.292Z,19.44
2022-07-26T09:47:21.682Z,19.86
2022-07-26T09:52:18.339Z,19.84
2022-07-26T09:57:10.840Z,19.87
2022-07-26T10:02:02.658Z,20.03
2022-07-26T10:06:55.874Z,20.30
2022-07-26T10:11:59.934Z,20.44
2022-07-26T10:16:51.910Z,20.46
2022-07-26T10:21:43.777Z,20.55
2022-07-26T10:26:37.552Z,20.75
2022-07-26T10:31:30.517Z,20.87
2022-07-26T10:36:28.799Z,20.92
2022-07-26T10:41:32.016Z,20.83
2022-07-26T10:46:27.030Z,20.57
2022-07-26T10:51:32.929Z,20.29
2022-07-26T10:56:24.561Z,20.03
2022-07-26T11:01:16.597Z,19.91
2022-07-26T11:06:19.047Z,19.98
2022-07-26T11:11:10.907Z,20.00
2022-07-26T11:16:05.700Z,19.98
2022-07-26T11:21:08.853Z,19.95
2022-07-26T11:26:03.348Z,20.04
2022-07-26T11:31:01.551Z,20.17
2022-07-26T11:35:55.559Z,20.46
2022-07-26T11:40:48.628Z,20.79
2022-07-26T11:45:42.068Z,21.07
2022-07-26T11:50:33.854Z,21.68
2022-07-26T11:55:30.304Z,22.62
2022-07-26T12:00:23.689Z,23.18
2022-07-26T12:05:22.196Z,23.37
2022-07-26T12:10:16.709Z,23.46
2022-07-26T12:15:08.522Z,23.62
2022-07-26T12:20:15.203Z,23.73
2022-07-26T12:25:09.261Z,23.67
2022-07-26T12:30:01.039Z,23.85
2022-07-26T12:35:09.319Z,23.77
2022-07-26T12:40:12.879Z,23.48
2022-07-26T12:45:08.567Z,23.02
2022-07-26T12:50:01.397Z,22.68
2022-07-26T12:54:53.578Z,22.56
2022-07-26T12:59:45.876Z,22.30
2022-07-26T13:04:38.155Z,22.21
2022-07-26T13:09:30.024Z,22.29
2022-07-26T13:14:21.800Z,22.32
2022-07-26T13:19:13.572Z,22.36
2022-07-26T13:24:07.459Z,22.37
2022-07-26T13:29:01.089Z,22.34
2022-07-26T13:33:52.751Z,22.25
2022-07-26T13:38:44.461Z,22.18
2022-07-26T13:43:36.660Z,21.81
2022-07-26T13:48:28.477Z,21.49
2022-07-26T13:53:20.583Z,21.31
2022-07-26T13:58:12.229Z,21.35
2022-07-26T14:03:04.175Z,21.42
2022-07-26T14:07:57.557Z,21.44
2022-07-26T14:12:49.969Z,21.40
2022-07-26T14:17:41.667Z,21.31
2022-07-26T14:22:33.360Z,21.08
2022-07-26T14:27:25.017Z,20.92
2022-07-26T14:32:21.320Z,21.02
2022-07-26T14:37:42.634Z,21.16
2022-07-26T14:42:25.219Z,21.17
2022-07-26T14:47:16.926Z,21.30
2022-07-26T14:52:08.653Z,21.38
2022-07-26T14:57:00.325Z,21.30
2022-07-26T15:01:52.045Z,21.19
2022-07-26T15:06:43.772Z,21.15
2022-07-26T15:11:35.550Z,21.34
2022-07-26T15:16:27.365Z,21.13
2022-07-26T15:21:19.315Z,21.23
2022-07-26T15:26:11.044Z,21.38
2022-07-26T15:31:02.657Z,21.39
2022-07-26T15:35:55.529Z,21.18
2022-07-26T15:40:47.440Z,21.09
2022-07-26T15:45:41.403Z,20.96
2022-07-26T15:50:33.531Z,20.73
2022-07-26T15:55:26.646Z,20.70
2022-07-26T16:00:18.735Z,20.84
2022-07-26T16:05:11.015Z,20.90
2022-07-26T16:10:02.713Z,20.99
2022-07-26T16:14:54.359Z,20.95
2022-07-26T16:19:46.044Z,21.02
2022-07-26T16:24:37.703Z,20.89
2022-07-26T16:29:29.496Z,20.79
2022-07-26T16:34:21.173Z,20.66
2022-07-26T16:39:13.881Z,20.57
2022-07-26T16:44:05.999Z,20.53
2022-07-26T16:48:57.878Z,20.41
2022-07-26T16:53:51.481Z,20.41
2022-07-26T16:58:43.286Z,20.29
2022-07-26T17:03:35.193Z,20.17
2022-07-26T17:08:27.283Z,20.09
2022-07-26T17:13:18.979Z,20.07
2022-07-26T17:18:10.679Z,19.98
2022-07-26T17:23:02.335Z,19.89
2022-07-26T17:27:54.169Z,19.81
2022-07-26T17:32:46.221Z,19.73
2022-07-26T17:37:38.015Z,19.62
2022-07-26T17:42:31.963Z,19.61
2022-07-26T17:47:28.768Z,19.39
2022-07-26T17:52:21.478Z,19.19
2022-07-26T17:57:13.116Z,19.13
2022-07-26T18:02:04.977Z,19.10
2022-07-26T18:06:56.685Z,19.03
2022-07-26T18:11:48.670Z,18.94
2022-07-26T18:16:41.571Z,18.82
2022-07-26T18:21:33.276Z,18.70
2022-07-26T18:26:25.050Z,18.57
2022-07-26T18:31:16.797Z,18.45
2022-07-26T18:36:08.505Z,18.25
2022-07-26T18:41:00.150Z,18.14
2022-07-26T18:45:51.898Z,18.06
2022-07-26T18:50:44.034Z,18.00
2022-07-26T18:55:35.742Z,17.92
2022-07-26T19:00:29.642Z,17.79
2022-07-26T19:05:22.910Z,17.70
2022-07-26T19:10:15.119Z,17.54
2022-07-26T19:15:07.601Z,17.40
2022-07-26T19:20:00.809Z,17.22
2022-07-26T19:24:52.764Z,17.18
2022-07-26T19:29:44.994Z,17.06
2022-07-26T19:34:36.725Z,16.89
2022-07-26T19:39:28.409Z,16.72
2022-07-26T19:44:20.323Z,16.58
2022-07-26T19:49:12.792Z,16.45
2022-07-26T19:54:05.726Z,16.25
2022-07-26T19:58:58.159Z,16.15
2022-07-26T20:03:50.187Z,16.05
2022-07-26T20:08:42.179Z,15.93
2022-07-26T20:13:33.875Z,15.83
2022-07-26T20:18:28.366Z,15.71
2022-07-26T20:23:20.482Z,15.65
2022-07-26T20:28:12.154Z,15.58
2022-07-26T20:33:04.042Z,15.50
2022-07-26T20:37:56.469Z,15.40
2022-07-26T20:42:50.079Z,15.31
2022-07-26T20:47:43.210Z,15.24
2022-07-26T20:52:35.112Z,15.10
2022-07-26T20:57:26.738Z,15.01
2022-07-26T21:02:18.491Z,14.86
2022-07-26T21:07:10.255Z,14.76
2022-07-26T21:12:01.972Z,14.72
2022-07-26T21:16:53.800Z,14.65
2022-07-26T21:21:45.533Z,14.57
2022-07-26T21:26:37.393Z,14.52
2022-07-26T21:31:29.128Z,14.49
2022-07-26T21:36:20.756Z,14.41
2022-07-26T21:41:13.606Z,14.33
2022-07-26T21:46:10.383Z,14.28
2022-07-26T21:51:04.274Z,14.24
2022-07-26T21:55:57.142Z,14.17
2022-07-26T22:00:48.989Z,14.15
2022-07-26T22:05:43.957Z,14.09
2022-07-26T22:10:42.344Z,14.05
2022-07-26T22:15:36.550Z,14.01
2022-07-26T22:20:30.994Z,13.91
2022-07-26T22:25:22.688Z,13.83
2022-07-26T22:30:14.560Z,13.73
2022-07-26T22:35:06.527Z,13.68
2022-07-26T22:39:58.210Z,13.63
2022-07-26T22:44:49.860Z,13.60
2022-07-26T22:49:41.546Z,13.58
2022-07-26T22:54:33.239Z,13.53
2022-07-26T22:59:25.435Z,13.50
2022-07-26T23:04:17.253Z,13.46
2022-07-26T23:09:09.363Z,13.41
2022-07-26T23:14:01.254Z,13.36
2022-07-26T23:18:52.923Z,13.30
2022-07-26T23:23:44.570Z,13.21
2022-07-26T23:28:38.462Z,13.11
2022-07-26T23:33:53.076Z,13.02
2022-07-26T23:38:42.336Z,12.92
2022-07-26T23:43:33.958Z,12.84
2022-07-26T23:48:25.763Z,12.79
2022-07-26T23:53:17.403Z,12.69
2022-07-26T23:58:11.925Z,12.62
